createdAt,value
2023-04-24T00:02:07.935Z,12.72
2023-04-24T00:04:46.311Z,12.71
2023-04-24T00:07:18.355Z,12.74
2023-04-24T00:09:51.869Z,12.68
2023-04-24T00:12:23.841Z,12.68
2023-04-24T00:14:56.574Z,12.66
2023-04-24T00:17:29.425Z,12.67
2023-04-24T00:20:03.161Z,12.73
2023-04-24T00:22:35.144Z,12.69
2023-04-24T00:25:08.399Z,12.67
2023-04-24T00:27:40.528Z,12.68
2023-04-24T00:30:13.378Z,12.66
2023-04-24T00:32:45.328Z,12.67
2023-04-24T00:35:18.107Z,12.68
2023-04-24T00:37:51.219Z,12.62
2023-04-24T00:40:23.588Z,12.61
2023-04-24T00:42:55.944Z,12.60
2023-04-24T00:45:27.964Z,12.60
2023-04-24T00:48:02.601Z,12.52
2023-04-24T00:50:37.578Z,12.51
2023-04-24T00:53:09.514Z,12.46
2023-04-24T00:55:42.332Z,12.41
2023-04-24T00:58:14.369Z,12.40
2023-04-24T01:00:47.617Z,12.43
2023-04-24T01:03:23.736Z,12.39
2023-04-24T01:05:57.119Z,12.41
2023-04-24T01:08:30.668Z,12.38
2023-04-24T01:11:06.099Z,12.34
2023-04-24T01:13:38.111Z,12.33
2023-04-24T01:16:11.595Z,12.32
2023-04-24T01:18:43.572Z,12.30
2023-04-24T01:21:17.985Z,12.33
2023-04-24T01:23:50.088Z,12.36
2023-04-24T01:26:26.831Z,12.38
2023-04-24T01:28:59.256Z,12.35
2023-04-24T01:31:32.708Z,12.37
2023-04-24T01:34:05.292Z,12.34
2023-04-24T01:36:39.210Z,12.30
2023-04-24T01:39:12.901Z,12.31
2023-04-24T01:41:45.326Z,12.27
2023-04-24T01:44:18.563Z,12.24
2023-04-24T01:46:51.895Z,12.19
2023-04-24T01:49:24.438Z,12.15
2023-04-24T01:51:57.811Z,12.09
2023-04-24T01:54:29.740Z,12.06
2023-04-24T02:00:06.030Z,12.11
2023-04-24T02:02:48.181Z,12.07
2023-04-24T02:05:21.745Z,12.03
2023-04-24T02:07:53.936Z,12.04
2023-04-24T02:10:26.351Z,12.05
2023-04-24T02:13:00.929Z,12.10
2023-04-24T02:15:33.319Z,12.11
2023-04-24T02:18:08.075Z,12.10
2023-04-24T02:20:40.339Z,12.04
2023-04-24T02:23:14.572Z,11.96
2023-04-24T02:25:46.703Z,11.88
2023-04-24T02:28:19.244Z,11.80
2023-04-24T02:30:51.943Z,11.78
2023-04-24T02:33:28.591Z,11.78
2023-04-24T02:36:00.661Z,11.73
2023-04-24T02:38:33.955Z,11.71
2023-04-24T02:41:07.271Z,11.70
2023-04-24T02:43:40.292Z,11.78
2023-04-24T02:46:12.828Z,11.81
2023-04-24T02:48:45.406Z,11.83
2023-04-24T02:51:17.669Z,11.87
2023-04-24T02:53:50.214Z,11.90
2023-04-24T02:56:22.234Z,11.92
2023-04-24T02:58:54.803Z,11.95
2023-04-24T03:01:27.229Z,11.93
2023-04-24T03:04:00.492Z,11.92
2023-04-24T03:06:33.808Z,11.92
2023-04-24T03:09:06.543Z,11.94
2023-04-24T03:11:38.456Z,11.96
2023-04-24T03:14:14.492Z,11.93
2023-04-24T03:16:46.833Z,11.95
2023-04-24T03:19:19.459Z,11.94
2023-04-24T03:22:05.775Z,11.92
2023-04-24T03:24:39.516Z,11.90
2023-04-24T03:27:11.870Z,11.89
2023-04-24T03:30:00.381Z,11.84
2023-04-24T03:32:52.996Z,11.80
2023-04-24T03:35:30.532Z,11.71
2023-04-24T03:38:06.540Z,11.70
2023-04-24T03:40:48.312Z,11.55
2023-04-24T03:43:35.548Z,11.49
2023-04-24T03:46:10.689Z,11.51
2023-04-24T03:48:47.678Z,11.53
2023-04-24T03:51:23.573Z,11.55
2023-04-24T03:53:58.824Z,11.54
2023-04-24T03:56:34.975Z,11.58
2023-04-24T03:59:07.443Z,11.55
2023-04-24T04:01:44.006Z,11.55
2023-04-24T04:04:20.049Z,11.59
2023-04-24T04:06:53.567Z,11.54
2023-04-24T04:09:26.383Z,11.52
2023-04-24T04:11:59.434Z,11.48
2023-04-24T04:14:31.841Z,11.43
2023-04-24T04:17:04.486Z,11.42
2023-04-24T04:19:37.193Z,11.35
2023-04-24T04:22:09.818Z,11.36
2023-04-24T04:24:47.566Z,11.40
2023-04-24T04:27:22.176Z,11.40
2023-04-24T04:30:06.010Z,11.39
2023-04-24T04:32:46.323Z,11.37
2023-04-24T04:35:19.615Z,11.41
2023-04-24T04:37:52.455Z,11.43
2023-04-24T04:40:45.906Z,11.41
2023-04-24T04:43:18.283Z,11.44
2023-04-24T04:45:57.350Z,11.44
2023-04-24T04:48:35.378Z,11.43
2023-04-24T04:51:11.064Z,11.43
2023-04-24T04:53:43.482Z,11.40
2023-04-24T04:56:16.166Z,11.41
2023-04-24T04:58:51.267Z,11.43
2023-04-24T05:01:25.780Z,11.40
2023-04-24T05:03:58.478Z,11.41
2023-04-24T05:06:32.791Z,11.44
2023-04-24T05:09:05.795Z,11.44
2023-04-24T05:11:44.783Z,11.50
2023-04-24T05:14:19.229Z,11.56
2023-04-24T05:16:51.871Z,11.45
2023-04-24T05:19:26.696Z,11.40
2023-04-24T05:21:58.998Z,11.41
2023-04-24T05:24:32.474Z,11.40
2023-04-24T05:27:08.078Z,11.37
2023-04-24T05:29:45.519Z,11.22
2023-04-24T05:32:17.683Z,11.19
2023-04-24T05:34:51.469Z,11.15
2023-04-24T05:37:23.477Z,11.04
2023-04-24T05:39:56.084Z,11.04
2023-04-24T05:42:29.109Z,11.04
2023-04-24T05:45:03.353Z,11.05
2023-04-24T05:47:35.332Z,10.99
2023-04-24T05:50:08.657Z,10.96
2023-04-24T05:52:40.571Z,10.96
2023-04-24T05:55:27.201Z,11.01
2023-04-24T05:58:00.261Z,11.06
2023-04-24T06:00:33.975Z,11.04
2023-04-24T06:03:11.748Z,10.97
2023-04-24T06:05:44.433Z,10.92
2023-04-24T06:08:16.632Z,10.95
2023-04-24T06:10:51.088Z,10.99
2023-04-24T06:13:25.520Z,11.15
2023-04-24T06:16:17.774Z,11.34
2023-04-24T06:18:56.745Z,11.26
2023-04-24T06:21:28.902Z,11.43
2023-04-24T06:24:01.757Z,11.45
2023-04-24T06:26:33.692Z,11.35
2023-04-24T06:29:06.824Z,11.28
2023-04-24T06:31:38.845Z,11.25
2023-04-24T06:34:11.459Z,11.14
2023-04-24T06:36:43.454Z,11.14
2023-04-24T06:39:16.072Z,11.07
2023-04-24T06:41:47.995Z,10.99
2023-04-24T06:44:26.278Z,11.10
2023-04-24T06:46:58.416Z,11.11
2023-04-24T06:49:31.346Z,11.06
2023-04-24T06:52:03.896Z,11.07
2023-04-24T06:54:36.494Z,11.08
2023-04-24T06:57:09.329Z,10.96
2023-04-24T06:59:41.888Z,10.91
2023-04-24T07:02:14.002Z,10.99
2023-04-24T07:04:48.868Z,11.11
2023-04-24T07:07:20.803Z,11.27
2023-04-24T07:09:55.064Z,11.43
2023-04-24T07:12:27.308Z,11.55
2023-04-24T07:15:00.290Z,11.83
2023-04-24T07:17:32.334Z,12.03
2023-04-24T07:20:05.406Z,12.50
2023-04-24T07:22:39.248Z,12.26
2023-04-24T07:25:12.288Z,12.13
2023-04-24T07:27:44.382Z,12.28
2023-04-24T07:30:16.749Z,12.28
2023-04-24T07:32:49.032Z,12.42
2023-04-24T07:35:22.242Z,13.33
2023-04-24T07:37:55.196Z,13.45
2023-04-24T07:40:27.517Z,15.67
2023-04-24T07:43:00.438Z,17.26
2023-04-24T07:45:34.573Z,20.00
2023-04-24T07:48:07.519Z,21.35
2023-04-24T07:50:39.463Z,20.80
2023-04-24T07:53:12.239Z,19.53
2023-04-24T07:55:44.344Z,16.50
2023-04-24T07:58:16.939Z,14.48
2023-04-24T08:00:48.909Z,13.63
2023-04-24T08:03:21.824Z,13.71
2023-04-24T08:05:54.082Z,13.15
2023-04-24T08:08:26.876Z,12.96
2023-04-24T08:10:58.878Z,12.89
2023-04-24T08:13:31.162Z,12.67
2023-04-24T08:16:03.157Z,12.83
2023-04-24T08:18:37.257Z,12.97
2023-04-24T08:21:09.258Z,13.37
2023-04-24T08:23:42.001Z,13.78
2023-04-24T08:26:14.496Z,13.72
2023-04-24T08:28:46.810Z,13.23
2023-04-24T08:31:19.286Z,13.14
2023-04-24T08:33:51.858Z,12.93
2023-04-24T08:36:28.238Z,12.97
2023-04-24T08:39:06.090Z,13.70
2023-04-24T08:41:39.018Z,15.36
2023-04-24T08:44:12.170Z,16.36
2023-04-24T08:46:46.953Z,14.94
2023-04-24T08:49:20.331Z,14.36
2023-04-24T08:51:53.844Z,15.39
2023-04-24T08:54:26.861Z,17.70
2023-04-24T08:57:04.864Z,18.10
2023-04-24T08:59:37.277Z,18.24
2023-04-24T09:02:12.969Z,17.36
2023-04-24T09:04:47.230Z,16.80
2023-04-24T09:07:23.723Z,15.24
2023-04-24T09:09:55.966Z,15.00
2023-04-24T09:12:28.652Z,14.70
2023-04-24T09:15:01.628Z,17.20
2023-04-24T09:17:35.647Z,15.75
2023-04-24T09:20:08.536Z,14.56
2023-04-24T09:22:41.357Z,13.96
2023-04-24T09:25:13.736Z,14.36
2023-04-24T09:27:47.281Z,14.96
2023-04-24T09:30:23.909Z,16.93
2023-04-24T09:33:16.936Z,16.80
2023-04-24T09:35:52.924Z,14.10
2023-04-24T09:38:38.535Z,13.10
2023-04-24T09:41:14.952Z,12.91
2023-04-24T09:43:47.577Z,13.13
2023-04-24T09:46:20.131Z,13.06
2023-04-24T09:48:52.449Z,13.60
2023-04-24T09:51:37.527Z,13.70
2023-04-24T09:54:38.186Z,14.52
2023-04-24T09:57:11.029Z,13.86
2023-04-24T09:59:47.772Z,14.29
2023-04-24T10:02:21.859Z,13.75
2023-04-24T10:05:00.334Z,15.38
2023-04-24T10:10:29.537Z,18.86
2023-04-24T10:13:03.104Z,19.88
2023-04-24T10:16:00.146Z,19.47
2023-04-24T10:18:36.668Z,19.76
2023-04-24T10:21:09.446Z,20.34
2023-04-24T10:23:43.288Z,18.34
2023-04-24T10:26:19.473Z,17.28
2023-04-24T10:28:51.706Z,17.89
2023-04-24T10:31:29.278Z,19.13
2023-04-24T10:34:04.372Z,18.06
2023-04-24T10:36:46.998Z,19.23
2023-04-24T10:39:27.696Z,19.14
2023-04-24T10:42:00.118Z,19.31
2023-04-24T10:44:39.766Z,17.44
2023-04-24T10:47:16.864Z,16.74
2023-04-24T10:49:52.844Z,16.06
2023-04-24T10:55:48.021Z,15.86
2023-04-24T10:58:37.196Z,14.91
2023-04-24T11:01:11.522Z,14.84
2023-04-24T11:03:57.271Z,14.88
2023-04-24T11:06:54.449Z,14.14
2023-04-24T11:09:32.327Z,14.13
2023-04-24T11:12:08.560Z,13.92
2023-04-24T11:15:03.306Z,13.80
2023-04-24T11:17:58.190Z,13.45
2023-04-24T11:20:31.765Z,13.52
2023-04-24T11:23:06.485Z,13.62
2023-04-24T11:25:38.465Z,13.64
2023-04-24T11:28:17.955Z,13.43
2023-04-24T11:30:50.511Z,13.84
2023-04-24T11:33:25.293Z,13.81
2023-04-24T11:35:57.403Z,14.09
2023-04-24T11:38:30.952Z,14.42
2023-04-24T11:41:04.262Z,15.58
2023-04-24T11:43:37.930Z,14.89
2023-04-24T11:46:10.150Z,14.94
2023-04-24T11:48:47.577Z,14.46
2023-04-24T11:51:19.480Z,14.33
2023-04-24T11:54:01.488Z,14.18
2023-04-24T11:56:37.339Z,14.88
2023-04-24T11:59:09.699Z,15.92
2023-04-24T12:01:48.700Z,14.34
2023-04-24T12:04:22.659Z,14.57
2023-04-24T12:07:05.875Z,15.07
2023-04-24T12:09:48.439Z,14.78
2023-04-24T12:12:27.958Z,14.94
2023-04-24T12:15:02.528Z,14.48
2023-04-24T12:17:55.309Z,13.63
2023-04-24T12:20:34.270Z,13.95
2023-04-24T12:23:06.946Z,14.03
2023-04-24T12:26:02.951Z,14.98
2023-04-24T12:28:41.386Z,14.57
2023-04-24T12:31:13.387Z,14.41
2023-04-24T12:33:46.491Z,14.40
2023-04-24T12:36:23.679Z,14.37
2023-04-24T12:38:56.070Z,14.57
2023-04-24T12:41:31.706Z,14.32
2023-04-24T12:44:05.135Z,13.96
2023-04-24T12:46:38.738Z,14.04
2023-04-24T12:49:11.896Z,14.04
2023-04-24T12:51:44.512Z,14.05
2023-04-24T12:54:16.469Z,13.79
2023-04-24T12:56:49.878Z,14.05
2023-04-24T12:59:21.752Z,14.35
2023-04-24T13:01:54.986Z,14.36
2023-04-24T13:04:28.675Z,14.88
2023-04-24T13:07:00.568Z,15.64
2023-04-24T13:09:35.944Z,15.19
2023-04-24T13:12:09.687Z,15.79
2023-04-24T13:14:42.474Z,15.61
2023-04-24T13:17:15.141Z,15.36
2023-04-24T13:19:48.548Z,14.93
2023-04-24T13:22:21.495Z,14.47
2023-04-24T13:24:55.451Z,14.74
2023-04-24T13:27:27.348Z,15.12
2023-04-24T13:30:02.042Z,15.07
2023-04-24T13:32:36.356Z,14.49
2023-04-24T13:41:02.950Z,15.22
2023-04-24T13:43:53.479Z,15.19
2023-04-24T13:46:26.407Z,15.48
2023-04-24T13:48:58.466Z,15.30
2023-04-24T13:51:32.177Z,15.19
2023-04-24T13:54:04.216Z,15.02
2023-04-24T13:56:37.099Z,14.76
2023-04-24T13:59:09.734Z,14.87
2023-04-24T14:01:42.658Z,14.79
2023-04-24T14:04:16.174Z,14.37
2023-04-24T14:06:49.847Z,14.43
2023-04-24T14:09:22.159Z,14.47
2023-04-24T14:11:54.977Z,14.28
2023-04-24T14:14:27.608Z,14.31
2023-04-24T14:17:00.622Z,14.41
2023-04-24T14:19:33.756Z,14.51
2023-04-24T14:22:07.701Z,14.20
2023-04-24T14:24:39.624Z,13.85
2023-04-24T14:27:15.053Z,14.04
2023-04-24T14:29:47.105Z,13.85
2023-04-24T14:32:20.098Z,13.78
2023-04-24T14:34:52.607Z,13.91
2023-04-24T14:37:24.935Z,13.71
2023-04-24T14:40:11.731Z,13.40
2023-04-24T14:42:52.668Z,13.26
2023-04-24T14:45:26.103Z,13.39
2023-04-24T14:47:59.641Z,13.24
2023-04-24T14:50:31.827Z,13.01
2023-04-24T14:53:05.662Z,13.00
2023-04-24T14:55:38.049Z,13.15
2023-04-24T14:58:11.141Z,13.05
2023-04-24T15:00:43.384Z,13.26
2023-04-24T15:03:19.738Z,13.09
2023-04-24T15:05:52.794Z,13.28
2023-04-24T15:08:26.000Z,13.21
2023-04-24T15:10:58.812Z,13.34
2023-04-24T15:13:31.635Z,13.32
2023-04-24T15:16:03.588Z,13.28
2023-04-24T15:18:36.988Z,13.48
2023-04-24T15:21:09.128Z,13.53
2023-04-24T15:23:41.875Z,13.43
2023-04-24T15:26:15.287Z,13.52
2023-04-24T15:28:48.197Z,13.57
2023-04-24T15:31:20.446Z,13.60
2023-04-24T15:33:53.745Z,13.87
2023-04-24T15:36:26.228Z,13.95
2023-04-24T15:38:58.149Z,13.97
2023-04-24T15:41:33.586Z,14.08
2023-04-24T15:44:06.885Z,13.76
2023-04-24T15:46:38.833Z,13.60
2023-04-24T15:52:04.610Z,13.56
2023-04-24T15:54:41.107Z,13.67
2023-04-24T15:57:14.186Z,14.01
2023-04-24T15:59:46.618Z,13.81
2023-04-24T16:02:21.127Z,13.85
2023-04-24T16:04:53.636Z,13.93
2023-04-24T16:07:27.303Z,13.83
2023-04-24T16:09:59.265Z,13.71
2023-04-24T16:12:32.626Z,13.63
2023-04-24T16:15:05.716Z,13.72
2023-04-24T16:17:40.402Z,13.80
2023-04-24T16:20:14.103Z,13.57
2023-04-24T16:22:46.465Z,13.61
2023-04-24T16:25:18.945Z,13.33
2023-04-24T16:27:53.106Z,13.12
2023-04-24T16:30:26.626Z,13.10
2023-04-24T16:32:59.062Z,13.05
2023-04-24T16:35:32.463Z,13.20
2023-04-24T16:38:04.721Z,13.18
2023-04-24T16:40:37.632Z,13.11
2023-04-24T16:43:09.580Z,13.20
2023-04-24T16:45:42.991Z,13.20
2023-04-24T16:48:15.339Z,13.25
2023-04-24T16:50:47.832Z,13.31
2023-04-24T16:53:19.696Z,13.24
2023-04-24T16:55:52.793Z,13.29
2023-04-24T16:58:25.083Z,13.17
2023-04-24T17:00:58.735Z,13.14
2023-04-24T17:03:30.945Z,13.18
2023-04-24T17:06:04.525Z,13.17
2023-04-24T17:08:36.474Z,13.07
2023-04-24T17:11:09.293Z,13.07
2023-04-24T17:13:41.226Z,12.98
2023-04-24T17:16:14.048Z,13.09
2023-04-24T17:18:47.044Z,12.99
2023-04-24T17:21:19.093Z,12.97
2023-04-24T17:23:52.170Z,13.02
2023-04-24T17:26:24.144Z,13.00
2023-04-24T17:28:57.238Z,12.94
2023-04-24T17:31:29.561Z,12.85
2023-04-24T17:34:02.842Z,12.86
2023-04-24T17:36:35.270Z,12.95
2023-04-24T17:39:07.688Z,12.94
2023-04-24T17:41:40.402Z,12.79
2023-04-24T17:44:12.319Z,12.79
2023-04-24T17:46:45.040Z,12.79
2023-04-24T17:49:17.371Z,12.80
2023-04-24T17:51:49.628Z,12.88
2023-04-24T17:54:23.285Z,12.81
2023-04-24T17:56:55.766Z,12.77
2023-04-24T17:59:28.134Z,12.67
2023-04-24T18:02:03.018Z,12.63
2023-04-24T18:04:35.212Z,12.60
2023-04-24T18:07:07.811Z,12.65
2023-04-24T18:09:39.824Z,12.68
2023-04-24T18:12:12.467Z,12.61
2023-04-24T18:14:44.398Z,12.49
2023-04-24T18:17:16.875Z,12.46
2023-04-24T18:19:49.132Z,12.51
2023-04-24T18:22:21.640Z,12.52
2023-04-24T18:24:53.574Z,12.49
2023-04-24T18:27:26.085Z,12.47
2023-04-24T18:29:59.192Z,12.43
2023-04-24T18:32:32.543Z,12.37
2023-04-24T18:35:04.918Z,12.39
2023-04-24T18:37:38.356Z,12.49
2023-04-24T18:40:11.211Z,12.35
2023-04-24T18:42:44.644Z,12.33
2023-04-24T18:45:16.716Z,12.30
2023-04-24T18:47:50.311Z,12.30
2023-04-24T18:50:22.400Z,12.30
2023-04-24T18:52:54.973Z,12.31
2023-04-24T18:55:26.910Z,12.29
2023-04-24T18:57:59.880Z,12.28
2023-04-24T19:00:31.903Z,12.23
2023-04-24T19:03:06.969Z,12.23
2023-04-24T19:05:38.995Z,12.19
2023-04-24T19:08:11.932Z,12.19
2023-04-24T19:10:43.893Z,12.20
2023-04-24T19:13:16.321Z,12.27
2023-04-24T19:15:48.662Z,12.27
2023-04-24T19:18:21.347Z,12.27
2023-04-24T19:20:53.330Z,12.15
2023-04-24T19:23:27.393Z,12.20
2023-04-24T19:25:59.885Z,12.33
2023-04-24T19:28:32.995Z,12.22
2023-04-24T19:31:04.976Z,12.14
2023-04-24T19:33:37.568Z,12.17
2023-04-24T19:36:10.485Z,12.17
2023-04-24T19:38:43.035Z,12.18
2023-04-24T19:41:16.005Z,12.16
2023-04-24T19:43:50.065Z,12.12
2023-04-24T19:46:22.595Z,12.11
2023-04-24T19:48:55.562Z,12.16
2023-04-24T19:51:27.635Z,12.12
2023-04-24T19:54:00.548Z,12.12
2023-04-24T19:56:33.049Z,12.03
2023-04-24T19:59:05.930Z,12.04
2023-04-24T20:01:39.633Z,12.01
2023-04-24T20:04:12.469Z,12.00
2023-04-24T20:06:44.562Z,11.96
2023-04-24T20:09:17.103Z,11.98
2023-04-24T20:11:51.158Z,11.97
2023-04-24T20:14:23.663Z,11.96
2023-04-24T20:16:55.711Z,11.95
2023-04-24T20:19:28.232Z,12.00
2023-04-24T20:22:00.315Z,11.94
2023-04-24T20:24:32.847Z,11.88
2023-04-24T20:27:04.862Z,11.87
2023-04-24T20:29:37.755Z,11.85
2023-04-24T20:32:10.152Z,11.84
2023-04-24T20:34:43.097Z,11.82
2023-04-24T20:37:15.029Z,11.78
2023-04-24T20:39:49.898Z,11.81
2023-04-24T20:42:22.555Z,11.76
2023-04-24T20:44:56.241Z,11.74
2023-04-24T20:47:28.270Z,11.75
2023-04-24T20:50:03.196Z,11.76
2023-04-24T20:52:35.458Z,11.72
2023-04-24T20:55:09.152Z,11.75
2023-04-24T20:57:41.423Z,11.71
2023-04-24T21:00:14.669Z,11.69
2023-04-24T21:02:46.662Z,11.67
2023-04-24T21:05:19.196Z,11.67
2023-04-24T21:07:55.711Z,11.66
2023-04-24T21:10:28.258Z,11.68
2023-04-24T21:13:00.178Z,11.70
2023-04-24T21:15:33.946Z,11.58
2023-04-24T21:18:06.217Z,11.62
2023-04-24T21:20:39.008Z,11.59
2023-04-24T21:23:11.048Z,11.59
2023-04-24T21:25:43.643Z,11.55
2023-04-24T21:28:15.947Z,11.53
2023-04-24T21:30:48.804Z,11.54
2023-04-24T21:33:21.155Z,11.54
2023-04-24T21:35:54.239Z,11.49
2023-04-24T21:38:26.580Z,11.47
2023-04-24T21:40:59.071Z,11.47
2023-04-24T21:43:49.858Z,11.48
2023-04-24T21:46:23.246Z,11.50
2023-04-24T21:48:55.327Z,11.48
2023-04-24T21:51:28.749Z,11.48
2023-04-24T21:54:00.675Z,11.47
2023-04-24T21:56:33.234Z,11.43
2023-04-24T21:59:05.437Z,11.46
2023-04-24T22:01:37.974Z,11.40
2023-04-24T22:04:10.330Z,11.40
2023-04-24T22:06:43.161Z,11.35
2023-04-24T22:09:15.742Z,11.32
2023-04-24T22:11:49.140Z,11.24
2023-04-24T22:14:21.327Z,11.20
2023-04-24T22:16:57.406Z,11.12
2023-04-24T22:19:29.768Z,11.10
2023-04-24T22:22:02.333Z,11.01
2023-04-24T22:24:34.291Z,10.94
2023-04-24T22:27:06.914Z,10.85
2023-04-24T22:29:38.930Z,10.83
2023-04-24T22:32:11.377Z,10.78
2023-04-24T22:34:43.287Z,10.76
2023-04-24T22:37:16.053Z,10.77
2023-04-24T22:39:48.399Z,10.80
2023-04-24T22:42:20.912Z,10.74
2023-04-24T22:44:52.845Z,10.74
2023-04-24T22:47:25.375Z,10.75
2023-04-24T22:49:58.420Z,10.78
2023-04-24T22:52:31.001Z,10.76
2023-04-24T22:55:03.933Z,10.84
2023-04-24T22:57:37.221Z,10.80
2023-04-24T23:00:11.335Z,10.82
2023-04-24T23:02:44.127Z,10.83
2023-04-24T23:05:16.510Z,10.85
2023-04-24T23:07:49.063Z,10.83
2023-04-24T23:10:21.574Z,10.81
2023-04-24T23:12:54.425Z,10.80
2023-04-24T23:15:26.326Z,10.84
2023-04-24T23:17:58.889Z,10.74
2023-04-24T23:20:31.245Z,10.71
2023-04-24T23:23:04.301Z,10.74
2023-04-24T23:25:36.207Z,10.68
2023-04-24T23:28:08.799Z,10.64
2023-04-24T23:30:40.752Z,10.64
2023-04-24T23:33:14.445Z,10.55
2023-04-24T23:35:46.658Z,10.58
2023-04-24T23:38:19.154Z,10.57
2023-04-24T23:40:52.120Z,10.60
2023-04-24T23:43:24.694Z,10.56
2023-04-24T23:45:56.839Z,10.55
2023-04-24T23:48:29.431Z,10.57
2023-04-24T23:51:01.739Z,10.62
2023-04-24T23:53:34.361Z,10.54
2023-04-24T23:56:06.614Z,10.57
2023-04-24T23:58:39.560Z,10.59
